Time;durP1;ratioP1;P1;durP2;ratioP2;P2;SDS_P1;SDS_P2;PMS_P1;PMS_P2;Temp;Humidity;BMP_temperature;BMP_pressure;BME280_temperature;BME280_humidity;BME280_pressure;Samples;Min_cycle;Max_cycle;Signal;HPM_P1;HPM_P2
2021/07/31 00:03:12;;;;;;;3.08;0.30;;;18.70;88.30;;;;;;10569531;27;20047;-68
2021/07/31 00:08:14;;;;;;;1.27;0.22;;;18.60;87.70;;;;;;10567813;27;20109;-67
2021/07/31 00:13:15;;;;;;;0.88;0.25;;;18.50;87.50;;;;;;10568018;27;20528;-68
2021/07/31 00:18:17;;;;;;;2.67;0.40;;;18.40;87.30;;;;;;10545876;27;20051;-68
2021/07/31 00:23:19;;;;;;;4.47;0.30;;;18.30;87.90;;;;;;10567200;27;20434;-67
2021/07/31 00:28:21;;;;;;;2.78;0.50;;;18.30;87.80;;;;;;10568042;27;20139;-68
2021/07/31 00:33:23;;;;;;;0.45;0.20;;;18.20;88.50;;;;;;10566707;27;20047;-67
2021/07/31 00:38:25;;;;;;;1.55;0.20;;;18.10;89.70;;;;;;10568439;27;20153;-67
2021/07/31 00:43:26;;;;;;;5.20;0.60;;;18.00;90.40;;;;;;10569386;27;20071;-67
2021/07/31 00:48:28;;;;;;;2.90;0.43;;;18.00;90.90;;;;;;10567046;27;20048;-67
2021/07/31 00:53:30;;;;;;;2.65;0.30;;;17.90;91.50;;;;;;10551815;27;20097;-67
2021/07/31 00:58:32;;;;;;;0.82;0.52;;;17.80;92.20;;;;;;10559468;27;20094;-67
2021/07/31 01:03:34;;;;;;;4.00;0.43;;;17.70;93.50;;;;;;10553571;27;20047;-72
2021/07/31 01:08:36;;;;;;;3.58;0.40;;;17.50;94.60;;;;;;10558721;27;20100;-67
2021/07/31 01:13:38;;;;;;;1.02;0.40;;;17.50;95.90;;;;;;10561244;27;20036;-67
2021/07/31 01:18:40;;;;;;;6.00;1.20;;;17.40;97.00;;;;;;10567293;27;20075;-67
2021/07/31 01:23:42;;;;;;;3.05;0.50;;;17.30;98.40;;;;;;10565162;27;20067;-67
2021/07/31 01:29:36;;;;;;;2.67;0.50;;;17.20;99.60;;;;;;10561492;27;20695;-67
2021/07/31 01:34:38;;;;;;;6.78;0.70;;;17.10;99.90;;;;;;10503588;28;20047;-67
2021/07/31 01:39:39;;;;;;;1.23;0.50;;;17.00;99.90;;;;;;10562713;28;20121;-67
2021/07/31 01:44:41;;;;;;;3.25;0.60;;;17.00;99.90;;;;;;10574056;28;20139;-67
2021/07/31 01:49:43;;;;;;;1.45;0.47;;;16.90;99.90;;;;;;10563345;28;20082;-68
2021/07/31 01:54:45;;;;;;;1.48;0.50;;;16.80;99.90;;;;;;10559317;28;20078;-67
2021/07/31 01:59:46;;;;;;;1.60;0.70;;;16.80;99.90;;;;;;10549519;28;20055;-68
2021/07/31 02:04:48;;;;;;;5.40;0.60;;;16.70;99.90;;;;;;10530871;28;20091;-67
2021/07/31 02:09:49;;;;;;;4.60;0.60;;;16.60;99.90;;;;;;10566683;28;20055;-67
2021/07/31 02:14:51;;;;;;;2.50;0.50;;;16.60;99.90;;;;;;10532860;28;20066;-67
2021/07/31 02:19:53;;;;;;;3.08;0.40;;;16.50;99.90;;;;;;10553209;28;20124;-67
2021/07/31 02:24:54;;;;;;;1.42;0.43;;;16.50;99.90;;;;;;10538438;28;20056;-67
2021/07/31 02:29:56;;;;;;;3.13;0.40;;;16.40;99.90;;;;;;10565213;28;20043;-67
2021/07/31 02:34:58;;;;;;;4.30;0.43;;;16.40;99.90;;;;;;10565497;28;20113;-67
2021/07/31 02:39:59;;;;;;;1.60;0.40;;;16.30;99.90;;;;;;10560609;27;20067;-67
2021/07/31 02:45:02;;;;;;;5.90;0.57;;;16.30;99.90;;;;;;10572828;27;20505;-67
2021/07/31 02:50:04;;;;;;;3.38;1.17;;;16.30;99.90;;;;;;10571278;27;20133;-67
2021/07/31 02:55:06;;;;;;;5.05;0.55;;;16.20;99.90;;;;;;10570658;27;20048;-67
2021/07/31 03:00:08;;;;;;;4.45;0.55;;;16.30;99.90;;;;;;10565251;27;20073;-67
2021/07/31 03:05:10;;;;;;;3.15;0.60;;;16.20;99.90;;;;;;10574930;27;20109;-68
2021/07/31 03:10:13;;;;;;;3.83;0.57;;;16.10;99.90;;;;;;10576562;27;20039;-67
2021/07/31 03:15:14;;;;;;;1.33;0.32;;;16.10;99.90;;;;;;10570494;27;20110;-67
2021/07/31 03:20:16;;;;;;;3.22;0.68;;;16.10;99.90;;;;;;10571612;27;20047;-67
2021/07/31 03:25:18;;;;;;;4.95;0.73;;;16.10;99.90;;;;;;10567730;27;20051;-67
2021/07/31 03:30:19;;;;;;;4.13;0.43;;;16.10;99.90;;;;;;10556730;27;20079;-67
2021/07/31 03:35:21;;;;;;;1.65;0.50;;;16.10;99.90;;;;;;10558586;27;20047;-67
2021/07/31 03:40:23;;;;;;;4.90;0.40;;;16.10;99.90;;;;;;10569183;27;20055;-67
2021/07/31 03:45:25;;;;;;;2.42;0.57;;;16.10;99.90;;;;;;10568947;27;20075;-67
2021/07/31 03:50:26;;;;;;;1.73;0.35;;;16.10;99.90;;;;;;10568807;27;20040;-69
2021/07/31 03:55:28;;;;;;;1.40;0.40;;;16.10;99.90;;;;;;10573134;27;20039;-67
2021/07/31 04:00:30;;;;;;;6.38;0.32;;;16.10;99.90;;;;;;10567967;27;20096;-67
2021/07/31 04:05:32;;;;;;;4.75;0.50;;;16.10;99.90;;;;;;10565051;27;20140;-68
2021/07/31 04:10:35;;;;;;;2.45;0.60;;;16.10;99.90;;;;;;10567081;27;20084;-68
2021/07/31 04:15:40;;;;;;;1.30;0.30;;;16.10;99.90;;;;;;10565152;27;20052;-67
2021/07/31 04:20:41;;;;;;;12.30;0.63;;;16.10;99.90;;;;;;10562853;27;20071;-68
2021/07/31 04:25:43;;;;;;;1.90;0.40;;;16.10;99.90;;;;;;10549871;27;20509;-67
2021/07/31 04:30:45;;;;;;;2.92;0.40;;;16.10;99.90;;;;;;10565317;27;20050;-68
2021/07/31 04:35:47;;;;;;;3.83;0.50;;;16.20;99.90;;;;;;10554818;27;20044;-68
2021/07/31 04:40:49;;;;;;;4.05;0.57;;;16.10;99.90;;;;;;10555837;27;20100;-68
2021/07/31 04:45:51;;;;;;;1.60;0.40;;;16.20;99.90;;;;;;10547832;27;20141;-67
2021/07/31 04:50:57;;;;;;;4.93;0.45;;;16.20;99.90;;;;;;10558755;27;20490;-67
2021/07/31 04:55:59;;;;;;;7.28;1.27;;;16.20;99.90;;;;;;10565294;27;20478;-67
2021/07/31 05:01:00;;;;;;;5.30;0.45;;;16.20;99.90;;;;;;10559476;27;20043;-67
2021/07/31 05:06:07;;;;;;;1.02;0.40;;;16.30;99.90;;;;;;10563302;27;20059;-68
2021/07/31 05:11:09;;;;;;;1.17;0.40;;;16.30;99.90;;;;;;10568078;27;20059;-67
2021/07/31 05:16:15;;;;;;;2.08;0.30;;;16.30;99.90;;;;;;10563551;27;20083;-67
2021/07/31 05:21:17;;;;;;;2.90;0.50;;;16.40;99.90;;;;;;10529073;28;20134;-68
2021/07/31 05:26:19;;;;;;;4.40;0.55;;;16.40;99.90;;;;;;10524583;28;20457;-67
2021/07/31 05:31:22;;;;;;;6.82;0.40;;;16.60;99.90;;;;;;10522248;28;20048;-68
2021/07/31 05:36:24;;;;;;;3.20;0.40;;;16.60;99.90;;;;;;10527631;28;20054;-67
2021/07/31 05:41:25;;;;;;;6.25;1.40;;;16.70;99.90;;;;;;10526914;28;20109;-67
2021/07/31 05:46:27;;;;;;;5.45;0.40;;;16.70;99.90;;;;;;10528184;28;20116;-67
2021/07/31 05:51:28;;;;;;;3.55;0.50;;;16.80;99.90;;;;;;10506258;28;20044;-67
2021/07/31 05:56:30;;;;;;;1.60;0.50;;;16.90;99.90;;;;;;10512827;28;20128;-67
2021/07/31 06:01:35;;;;;;;4.90;0.47;;;17.00;99.90;;;;;;10503645;28;20908;-67
2021/07/31 06:06:37;;;;;;;2.60;0.30;;;17.00;99.90;;;;;;10519747;28;20051;-67
2021/07/31 06:11:38;;;;;;;0.95;0.28;;;17.00;99.90;;;;;;10524227;28;20051;-68
2021/07/31 06:16:40;;;;;;;2.30;0.70;;;17.10;99.90;;;;;;10540467;27;20741;-67
2021/07/31 06:21:42;;;;;;;5.20;0.30;;;17.30;99.90;;;;;;10570390;27;20047;-68
2021/07/31 06:26:43;;;;;;;10.23;0.55;;;17.30;99.90;;;;;;10574843;27;20569;-68
2021/07/31 06:31:45;;;;;;;1.98;0.40;;;17.40;99.90;;;;;;10574724;27;21029;-68
2021/07/31 06:36:47;;;;;;;1.88;0.73;;;17.40;99.90;;;;;;10569346;27;20142;-68
2021/07/31 06:41:49;;;;;;;1.70;0.28;;;17.50;99.90;;;;;;10571740;27;20124;-68
2021/07/31 06:46:50;;;;;;;3.13;0.73;;;17.60;99.90;;;;;;10566748;27;20055;-67
2021/07/31 06:51:52;;;;;;;2.40;0.50;;;17.80;99.90;;;;;;10562836;27;20124;-68
2021/07/31 06:56:54;;;;;;;4.15;0.30;;;17.80;99.90;;;;;;10563675;27;20067;-68
2021/07/31 07:01:56;;;;;;;4.65;0.40;;;17.90;99.90;;;;;;10564673;27;20104;-68
2021/07/31 07:07:01;;;;;;;5.65;0.40;;;18.00;99.20;;;;;;10548804;27;20255;-67
2021/07/31 07:12:03;;;;;;;5.95;0.60;;;18.40;98.90;;;;;;10552724;27;20104;-67
2021/07/31 07:17:05;;;;;;;1.70;0.40;;;18.50;98.20;;;;;;10555767;27;20060;-68
2021/07/31 07:22:07;;;;;;;3.33;0.50;;;18.70;97.00;;;;;;10569208;27;20048;-68
2021/07/31 07:27:09;;;;;;;1.13;0.45;;;18.70;96.30;;;;;;10563348;27;20040;-68
2021/07/31 07:32:10;;;;;;;2.25;0.43;;;18.90;94.70;;;;;;10573207;27;20120;-68
2021/07/31 07:37:12;;;;;;;3.65;0.85;;;18.70;95.00;;;;;;10573257;27;20063;-67
2021/07/31 07:42:13;;;;;;;4.68;0.50;;;19.00;94.90;;;;;;10570553;27;20067;-68
2021/07/31 07:47:15;;;;;;;2.53;0.40;;;19.00;94.00;;;;;;10572799;27;20808;-67
2021/07/31 07:52:17;;;;;;;1.92;1.02;;;18.90;93.80;;;;;;10570730;27;20108;-68
2021/07/31 07:57:18;;;;;;;3.47;0.77;;;19.10;94.00;;;;;;10564169;27;20043;-68
2021/07/31 08:02:20;;;;;;;0.93;0.45;;;19.40;92.90;;;;;;10566210;27;20075;-67
2021/07/31 08:07:22;;;;;;;1.33;0.60;;;19.40;92.70;;;;;;10552644;27;20069;-67
2021/07/31 08:12:23;;;;;;;7.10;0.63;;;19.70;92.40;;;;;;10575760;27;20111;-67
2021/07/31 08:17:25;;;;;;;2.55;0.50;;;19.90;91.30;;;;;;10570979;27;20121;-67
2021/07/31 08:22:30;;;;;;;1.88;0.40;;;19.90;91.80;;;;;;10546038;27;20096;-68
2021/07/31 08:27:31;;;;;;;2.97;0.45;;;20.00;90.60;;;;;;10555856;27;20075;-68
2021/07/31 08:32:34;;;;;;;2.58;0.50;;;20.30;90.20;;;;;;10543899;27;20078;-68
2021/07/31 08:37:37;;;;;;;3.28;0.43;;;20.40;90.00;;;;;;10569763;27;20062;-68
2021/07/31 08:42:40;;;;;;;2.08;0.40;;;20.10;89.80;;;;;;10575791;27;20036;-67
2021/07/31 08:47:45;;;;;;;2.42;0.40;;;20.30;87.90;;;;;;10565106;27;20104;-68
2021/07/31 08:52:48;;;;;;;1.13;0.30;;;20.10;86.50;;;;;;10568541;27;20103;-68
2021/07/31 08:57:50;;;;;;;0.98;0.35;;;20.40;84.80;;;;;;10565436;27;20090;-68
2021/07/31 09:02:51;;;;;;;1.65;0.50;;;20.80;83.20;;;;;;10565078;27;20053;-68
2021/07/31 09:08:01;;;;;;;0.85;0.40;;;20.90;82.50;;;;;;10562350;27;20043;-68
2021/07/31 09:13:04;;;;;;;3.17;0.40;;;21.10;82.10;;;;;;10560362;27;20059;-67
2021/07/31 09:18:30;;;;;;;3.33;0.52;;;21.20;81.10;;;;;;10561037;27;20051;-67
2021/07/31 09:23:52;;;;;;;4.82;0.40;;;21.50;80.70;;;;;;10504797;27;21347;-67
2021/07/31 09:29:09;;;;;;;2.00;0.43;;;21.30;80.50;;;;;;10546326;28;20040;-67
2021/07/31 09:34:10;;;;;;;;;;;21.40;80.70;;;;;;10547392;27;20064;-67
2021/07/31 09:39:12;;;;;;;4.63;0.50;;;21.40;79.10;;;;;;10555059;28;19923;-68
2021/07/31 09:44:16;;;;;;;4.05;2.50;;;21.20;78.50;;;;;;10556710;28;20039;-67
2021/07/31 09:49:20;;;;;;;4.68;0.50;;;21.60;80.00;;;;;;10569485;27;20043;-68
2021/07/31 09:54:22;;;;;;;3.63;2.00;;;21.60;77.60;;;;;;10562247;27;20059;-67
2021/07/31 09:59:23;;;;;;;3.35;0.55;;;21.50;78.70;;;;;;10566923;27;20104;-67
2021/07/31 10:04:26;;;;;;;1.23;0.30;;;21.30;77.20;;;;;;10572218;27;20064;-67
2021/07/31 10:09:29;;;;;;;0.50;0.30;;;21.20;78.10;;;;;;10555257;27;20110;-68
2021/07/31 10:14:31;;;;;;;1.50;0.50;;;21.40;76.20;;;;;;10575895;27;20105;-68
2021/07/31 10:19:39;;;;;;;2.92;0.50;;;21.50;75.90;;;;;;10573545;27;20124;-68
2021/07/31 10:24:59;;;;;;;1.80;0.50;;;21.40;75.90;;;;;;10569819;27;20101;-66
2021/07/31 10:30:02;;;;;;;2.95;0.90;;;21.30;75.60;;;;;;10516784;27;20072;-67
2021/07/31 10:35:05;;;;;;;8.50;4.40;;;21.50;75.60;;;;;;10572180;27;20514;-67
2021/07/31 10:40:33;;;;;;;13.85;7.82;;;21.80;74.70;;;;;;10575058;27;20043;-67
2021/07/31 10:45:35;;;;;;;2.63;0.50;;;22.40;73.80;;;;;;10515576;27;20044;-67
2021/07/31 10:50:39;;;;;;;1.05;0.30;;;21.60;73.50;;;;;;10573655;27;20081;-66
2021/07/31 10:55:43;;;;;;;2.83;1.00;;;22.00;73.50;;;;;;10552499;27;23748;-67
2021/07/31 11:00:49;;;;;;;6.07;1.73;;;22.00;73.10;;;;;;10547057;27;20067;-67
2021/07/31 11:05:51;;;;;;;;;;;22.40;73.30;;;;;;10560910;27;20439;-67
2021/07/31 11:11:19;;;;;;;3.30;1.08;;;22.40;70.80;;;;;;10576019;27;19919;-66
2021/07/31 11:16:26;;;;;;;3.15;0.50;;;22.60;70.60;;;;;;10561526;27;20051;-67
2021/07/31 11:21:33;;;;;;;1.30;0.38;;;23.40;68.70;;;;;;10572233;27;20047;-67
2021/07/31 11:26:56;;;;;;;2.53;0.30;;;23.30;68.10;;;;;;10574281;27;20053;-67
2021/07/31 11:32:13;;;;;;;1.33;0.25;;;23.60;66.70;;;;;;10573220;27;20044;-67
2021/07/31 11:37:16;;;;;;;1.88;0.40;;;24.00;65.90;;;;;;10569098;27;20075;-67
2021/07/31 11:42:22;;;;;;;0.40;0.30;;;23.80;65.80;;;;;;10561387;27;20068;-68
2021/07/31 11:47:29;;;;;;;;;;;24.10;64.70;;;;;;10560302;27;20503;-67
2021/07/31 11:52:31;;;;;;;0.68;0.30;;;24.10;64.00;;;;;;10542877;27;19923;-68
2021/07/31 11:57:33;;;;;;;3.20;0.30;;;23.70;65.00;;;;;;10549126;27;20067;-68
2021/07/31 12:02:37;;;;;;;2.45;0.30;;;23.60;64.20;;;;;;10551038;27;20127;-67
2021/07/31 12:07:39;;;;;;;1.02;0.28;;;23.10;65.60;;;;;;10559738;27;20124;-68
2021/07/31 12:12:43;;;;;;;4.05;0.55;;;22.40;66.20;;;;;;10561598;27;20094;-67
2021/07/31 12:17:56;;;;;;;2.05;0.30;;;22.90;67.20;;;;;;10554319;27;20055;-67
2021/07/31 12:22:59;;;;;;;2.65;0.60;;;22.70;65.50;;;;;;10558286;27;20063;-67
2021/07/31 12:28:10;;;;;;;1.02;0.30;;;23.00;66.00;;;;;;10566009;27;20498;-67
2021/07/31 12:33:16;;;;;;;1.80;0.30;;;23.00;66.00;;;;;;10560222;27;20112;-66
2021/07/31 12:38:23;;;;;;;0.93;0.27;;;23.00;64.70;;;;;;10573379;27;20110;-66
2021/07/31 12:43:27;;;;;;;2.20;0.40;;;22.90;65.60;;;;;;10569317;27;20104;-66
2021/07/31 12:48:30;;;;;;;4.00;0.40;;;23.30;64.80;;;;;;10564721;27;20051;-66
2021/07/31 12:53:31;;;;;;;3.47;0.30;;;23.60;64.30;;;;;;10565376;27;20730;-66
2021/07/31 12:58:33;;;;;;;1.85;0.20;;;23.90;64.90;;;;;;10566297;27;20100;-67
2021/07/31 13:03:35;;;;;;;1.77;0.30;;;24.00;63.10;;;;;;10565273;27;20046;-67
2021/07/31 13:08:36;;;;;;;0.60;0.30;;;24.00;64.60;;;;;;10570023;27;20442;-66
2021/07/31 13:13:38;;;;;;;2.08;0.50;;;23.50;65.10;;;;;;10566259;27;20101;-67
2021/07/31 13:18:40;;;;;;;0.60;0.30;;;24.00;64.60;;;;;;10561813;27;20078;-66
2021/07/31 13:23:41;;;;;;;0.70;0.30;;;23.40;65.10;;;;;;10554849;27;20093;-67
2021/07/31 13:28:43;;;;;;;1.23;0.40;;;23.50;63.30;;;;;;10545972;28;20116;-66
2021/07/31 13:33:44;;;;;;;1.02;0.38;;;23.30;64.00;;;;;;10567266;27;20043;-66
2021/07/31 13:38:50;;;;;;;0.73;0.20;;;23.70;64.80;;;;;;10558714;27;20048;-67
2021/07/31 13:43:53;;;;;;;1.75;0.40;;;23.70;64.70;;;;;;10565663;28;20074;-66
2021/07/31 13:48:55;;;;;;;3.40;0.40;;;23.70;64.20;;;;;;10566817;28;20059;-66
2021/07/31 13:53:57;;;;;;;0.65;0.30;;;24.20;64.10;;;;;;10533975;28;20112;-66
2021/07/31 13:59:05;;;;;;;0.85;0.30;;;24.10;63.90;;;;;;10565279;28;20047;-66
2021/07/31 14:04:07;;;;;;;0.90;0.20;;;24.70;62.80;;;;;;10564658;28;20145;-66
2021/07/31 14:09:09;;;;;;;0.70;0.30;;;24.70;61.70;;;;;;10560105;28;20052;-67
2021/07/31 14:14:10;;;;;;;3.25;0.20;;;25.00;59.40;;;;;;10557328;28;20508;-67
2021/07/31 14:19:12;;;;;;;1.17;0.20;;;25.60;59.20;;;;;;10536088;28;20063;-66
2021/07/31 14:24:14;;;;;;;1.00;0.20;;;24.70;57.80;;;;;;10545642;28;20120;-67
2021/07/31 14:29:15;;;;;;;3.80;0.63;;;24.50;59.60;;;;;;10544866;28;20056;-67
2021/07/31 14:34:17;;;;;;;2.45;0.22;;;23.90;61.60;;;;;;10558661;27;20055;-67
2021/07/31 14:39:19;;;;;;;1.67;0.25;;;24.30;60.90;;;;;;10561918;27;20044;-67
2021/07/31 14:44:20;;;;;;;1.88;0.60;;;25.10;59.50;;;;;;10561780;27;20075;-67
2021/07/31 14:49:22;;;;;;;1.05;0.30;;;24.60;61.10;;;;;;10561465;27;20498;-67
2021/07/31 14:54:23;;;;;;;0.75;0.30;;;24.80;60.20;;;;;;10574343;27;20067;-67
2021/07/31 14:59:25;;;;;;;0.68;0.30;;;25.10;58.90;;;;;;10575731;27;20466;-67
2021/07/31 15:04:27;;;;;;;0.68;0.20;;;24.90;60.00;;;;;;10569115;27;20501;-67
2021/07/31 15:09:28;;;;;;;1.73;0.32;;;24.70;59.90;;;;;;10573625;27;20043;-67
2021/07/31 15:14:30;;;;;;;4.70;0.40;;;24.60;60.10;;;;;;10572924;27;20377;-67
2021/07/31 15:19:33;;;;;;;1.17;0.20;;;25.80;59.40;;;;;;10568819;27;20122;-67
2021/07/31 15:24:36;;;;;;;0.38;0.20;;;25.40;58.50;;;;;;10564410;27;20044;-68
2021/07/31 15:29:38;;;;;;;1.02;0.20;;;25.40;58.60;;;;;;10572165;27;20043;-67
2021/07/31 15:34:39;;;;;;;1.60;0.25;;;24.50;59.60;;;;;;10572940;27;20462;-67
2021/07/31 15:39:43;;;;;;;1.02;0.40;;;24.20;59.30;;;;;;10575074;27;22632;-67
2021/07/31 15:44:44;;;;;;;3.80;0.30;;;24.30;61.50;;;;;;10566271;27;20077;-67
2021/07/31 15:49:46;;;;;;;1.73;0.30;;;24.10;62.00;;;;;;10565542;27;20055;-63
2021/07/31 15:54:48;;;;;;;5.15;0.30;;;23.90;62.30;;;;;;10558918;27;20043;-63
2021/07/31 15:59:50;;;;;;;0.93;0.20;;;24.40;61.70;;;;;;10556870;27;20068;-63
2021/07/31 16:04:51;;;;;;;1.63;0.30;;;23.90;61.70;;;;;;10543185;27;20100;-63
2021/07/31 16:09:53;;;;;;;3.30;0.30;;;24.60;60.60;;;;;;10566523;27;20093;-63
2021/07/31 16:14:55;;;;;;;1.33;0.30;;;23.40;62.50;;;;;;10564741;27;20105;-67
2021/07/31 16:19:56;;;;;;;1.80;0.25;;;23.60;62.30;;;;;;10573545;27;20067;-67
2021/07/31 16:25:03;;;;;;;0.80;0.20;;;24.10;62.00;;;;;;10564529;27;20170;-67
2021/07/31 16:30:05;;;;;;;2.30;0.50;;;24.90;60.50;;;;;;10572511;27;20067;-67
2021/07/31 16:35:07;;;;;;;0.68;0.20;;;24.80;60.40;;;;;;10559336;27;20133;-67
2021/07/31 16:40:09;;;;;;;0.88;0.30;;;24.50;59.90;;;;;;10564440;27;20039;-67
2021/07/31 16:45:12;;;;;;;0.88;0.32;;;23.80;61.70;;;;;;10512801;27;20049;-67
2021/07/31 16:50:13;;;;;;;8.07;0.40;;;24.00;62.10;;;;;;10530791;27;20048;-67
2021/07/31 16:55:15;;;;;;;2.70;0.32;;;23.90;62.10;;;;;;10553546;27;20047;-67
2021/07/31 17:00:17;;;;;;;3.20;0.80;;;23.80;62.60;;;;;;10550941;27;20080;-67
2021/07/31 17:05:18;;;;;;;2.80;0.40;;;24.00;62.60;;;;;;10565617;27;20134;-67
2021/07/31 17:10:21;;;;;;;3.40;0.30;;;24.10;62.30;;;;;;10549009;27;20074;-67
2021/07/31 17:15:22;;;;;;;3.33;0.20;;;24.10;61.70;;;;;;10556967;27;20100;-66
2021/07/31 17:20:24;;;;;;;2.70;1.02;;;23.80;63.10;;;;;;10557979;27;20139;-66
2021/07/31 17:25:26;;;;;;;5.47;0.68;;;23.90;62.60;;;;;;10561730;27;20096;-66
2021/07/31 17:30:28;;;;;;;2.58;1.38;;;23.60;64.00;;;;;;10565201;27;20554;-66
2021/07/31 17:35:29;;;;;;;1.50;0.32;;;23.10;64.40;;;;;;10568660;27;20405;-66
2021/07/31 17:40:31;;;;;;;3.45;0.40;;;23.10;64.20;;;;;;10568933;28;20054;-66
2021/07/31 17:45:33;;;;;;;2.58;0.50;;;22.70;66.50;;;;;;10546294;28;20039;-66
2021/07/31 17:50:34;;;;;;;0.93;0.40;;;22.60;66.20;;;;;;10560860;28;20134;-67
2021/07/31 17:55:36;;;;;;;2.38;0.40;;;22.70;66.00;;;;;;10553647;28;20052;-67
2021/07/31 18:00:38;;;;;;;1.50;0.32;;;22.90;65.90;;;;;;10567581;28;20047;-66
2021/07/31 18:05:40;;;;;;;0.90;0.63;;;23.10;65.80;;;;;;10568930;28;20062;-67
2021/07/31 18:10:42;;;;;;;2.63;0.30;;;22.80;67.00;;;;;;10570994;27;20794;-67
2021/07/31 18:15:44;;;;;;;3.63;0.60;;;22.40;67.40;;;;;;10556397;27;20055;-67
2021/07/31 18:20:45;;;;;;;3.75;0.63;;;22.10;69.00;;;;;;10569178;27;20064;-67
2021/07/31 18:25:47;;;;;;;7.82;0.55;;;21.90;70.30;;;;;;10561689;27;20058;-66
2021/07/31 18:30:48;;;;;;;31.13;2.17;;;21.70;70.70;;;;;;10559542;27;20474;-66
2021/07/31 18:35:50;;;;;;;35.53;2.20;;;21.60;71.40;;;;;;10573938;27;20059;-66
2021/07/31 18:40:52;;;;;;;16.85;1.30;;;21.50;71.90;;;;;;10564416;27;20124;-66
2021/07/31 18:45:54;;;;;;;21.73;1.60;;;21.40;72.80;;;;;;10575883;27;20104;-66
2021/07/31 18:50:55;;;;;;;22.13;2.58;;;21.20;73.50;;;;;;10566984;27;20067;-66
2021/07/31 18:55:57;;;;;;;19.92;3.05;;;21.10;74.10;;;;;;10577011;27;20505;-66
2021/07/31 19:00:59;;;;;;;28.40;2.20;;;21.10;74.80;;;;;;10571048;27;20073;-66
2021/07/31 19:06:00;;;;;;;11.32;1.58;;;21.00;75.10;;;;;;10567988;27;20050;-66
2021/07/31 19:11:02;;;;;;;2.47;0.80;;;20.90;75.40;;;;;;10564531;27;20081;-66
2021/07/31 19:16:09;;;;;;;18.45;1.35;;;20.90;75.90;;;;;;10559549;27;20478;-68
2021/07/31 19:21:10;;;;;;;15.52;2.22;;;20.70;76.20;;;;;;10549979;27;20527;-68
2021/07/31 19:26:12;;;;;;;15.68;1.60;;;20.60;76.90;;;;;;10565019;27;20097;-66
2021/07/31 19:31:14;;;;;;;9.68;0.73;;;20.50;77.80;;;;;;10558765;27;20095;-66
2021/07/31 19:36:19;;;;;;;2.65;0.80;;;20.40;78.10;;;;;;10560639;27;20109;-66
2021/07/31 19:41:21;;;;;;;7.10;1.00;;;20.40;78.70;;;;;;10549753;27;20055;-66
2021/07/31 19:46:22;;;;;;;4.47;0.60;;;20.40;79.80;;;;;;10549891;27;20594;-66
2021/07/31 19:51:24;;;;;;;9.35;2.08;;;20.30;79.50;;;;;;10568005;27;20070;-66
2021/07/31 19:56:26;;;;;;;5.25;0.60;;;20.30;80.30;;;;;;10564190;27;20048;-66
2021/07/31 20:01:27;;;;;;;3.85;0.60;;;20.10;81.00;;;;;;10565767;27;20047;-66
2021/07/31 20:06:29;;;;;;;1.83;0.60;;;20.00;81.50;;;;;;10569509;27;20398;-66
2021/07/31 20:11:31;;;;;;;1.33;0.73;;;19.90;82.10;;;;;;10566230;27;20131;-66
2021/07/31 20:16:32;;;;;;;5.72;0.60;;;19.80;83.00;;;;;;10564264;27;20051;-66
2021/07/31 20:21:34;;;;;;;5.20;0.60;;;19.60;84.40;;;;;;10563453;27;20105;-66
2021/07/31 20:26:36;;;;;;;3.05;0.70;;;19.40;85.30;;;;;;10565706;27;20035;-68
2021/07/31 20:31:37;;;;;;;9.15;1.08;;;19.30;86.10;;;;;;10574488;27;20055;-66
2021/07/31 20:36:39;;;;;;;6.05;0.90;;;19.20;87.10;;;;;;10572338;27;20059;-66
2021/07/31 20:41:41;;;;;;;4.15;0.80;;;19.10;88.10;;;;;;10572948;27;20401;-65
2021/07/31 20:46:43;;;;;;;7.35;1.02;;;19.00;89.10;;;;;;10560459;27;20832;-66
2021/07/31 20:51:45;;;;;;;3.92;0.70;;;18.90;90.30;;;;;;10557158;27;20455;-65
2021/07/31 20:56:47;;;;;;;4.10;1.20;;;18.90;90.60;;;;;;10549294;27;20047;-66
2021/07/31 21:01:49;;;;;;;12.65;3.83;;;18.90;91.10;;;;;;10562996;27;20056;-65
2021/07/31 21:06:50;;;;;;;8.88;5.15;;;18.80;92.60;;;;;;10568381;27;20050;-65
2021/07/31 21:11:54;;;;;;;7.38;1.63;;;18.70;94.60;;;;;;10558441;27;20096;-65
2021/07/31 21:16:55;;;;;;;7.13;1.67;;;18.50;95.80;;;;;;10549000;27;20141;-65
2021/07/31 21:21:57;;;;;;;2.53;1.10;;;18.20;96.70;;;;;;10569727;27;20043;-65
2021/07/31 21:26:59;;;;;;;5.95;1.83;;;18.20;98.30;;;;;;10565440;27;20051;-65
2021/07/31 21:32:00;;;;;;;1.58;0.88;;;18.10;98.40;;;;;;10563663;27;20096;-66
2021/07/31 21:37:02;;;;;;;5.05;0.90;;;18.10;99.60;;;;;;10555656;27;20462;-67
2021/07/31 21:42:04;;;;;;;1.75;0.88;;;18.00;99.90;;;;;;10547389;28;20780;-66
2021/07/31 21:47:08;;;;;;;3.28;1.30;;;18.00;99.90;;;;;;10551628;28;20530;-66
2021/07/31 21:52:09;;;;;;;5.25;0.98;;;17.80;99.90;;;;;;10554400;28;20177;-66
2021/07/31 21:57:11;;;;;;;2.17;1.02;;;17.80;99.90;;;;;;10558819;28;20059;-67
2021/07/31 22:02:13;;;;;;;7.13;1.15;;;17.80;99.90;;;;;;10553440;28;20551;-65
2021/07/31 22:07:15;;;;;;;4.22;1.30;;;17.60;99.90;;;;;;10550853;28;20047;-66
2021/07/31 22:12:17;;;;;;;2.55;1.42;;;17.50;99.90;;;;;;10548366;28;20128;-66
2021/07/31 22:17:19;;;;;;;6.95;1.98;;;17.60;99.90;;;;;;10562715;28;20552;-66
2021/07/31 22:22:20;;;;;;;10.80;2.35;;;17.60;99.90;;;;;;10565230;28;20101;-66
2021/07/31 22:27:22;;;;;;;3.88;1.40;;;17.50;99.90;;;;;;10567028;28;20123;-66
2021/07/31 22:32:24;;;;;;;4.57;1.33;;;17.30;99.90;;;;;;10562723;28;20093;-66
2021/07/31 22:37:26;;;;;;;6.55;1.58;;;17.20;99.90;;;;;;10562998;28;20071;-66
2021/07/31 22:42:28;;;;;;;3.70;1.70;;;17.30;99.90;;;;;;10559848;28;20093;-66
2021/07/31 22:47:33;;;;;;;5.40;1.52;;;17.30;99.90;;;;;;10563742;28;20101;-66
2021/07/31 22:52:35;;;;;;;4.05;1.30;;;17.40;99.90;;;;;;10560374;28;20047;-66
2021/07/31 22:57:40;;;;;;;3.05;1.23;;;17.60;99.90;;;;;;10559338;27;20071;-66
2021/07/31 23:02:42;;;;;;;2.50;1.42;;;17.50;99.90;;;;;;10570975;27;20051;-66
2021/07/31 23:07:45;;;;;;;7.28;2.33;;;17.40;99.90;;;;;;10577676;27;20388;-66
2021/07/31 23:12:47;;;;;;;3.50;1.48;;;17.60;99.90;;;;;;10570117;27;20060;-66
2021/07/31 23:17:49;;;;;;;5.60;2.60;;;17.60;99.90;;;;;;10542094;27;20514;-66
2021/07/31 23:22:51;;;;;;;5.93;1.90;;;17.40;99.90;;;;;;10557748;27;20075;-67
2021/07/31 23:27:52;;;;;;;4.25;2.70;;;17.30;99.90;;;;;;10561467;27;20512;-66
2021/07/31 23:32:54;;;;;;;5.25;1.60;;;17.30;99.90;;;;;;10565187;27;20447;-66
2021/07/31 23:37:55;;;;;;;7.22;1.73;;;17.40;99.90;;;;;;10570259;27;20062;-66
2021/07/31 23:42:57;;;;;;;4.47;1.83;;;17.40;99.90;;;;;;10573654;27;20070;-66
2021/07/31 23:47:59;;;;;;;4.07;1.77;;;17.20;99.90;;;;;;10569496;27;20078;-66
2021/07/31 23:53:00;;;;;;;8.57;2.63;;;17.20;99.90;;;;;;10571321;27;20052;-66
2021/07/31 23:58:02;;;;;;;7.78;1.85;;;17.10;99.90;;;;;;10569285;27;20063;-66
